Terminal Aerodrome Forecast
Issued by NWS

Home | Current Version | Previous Version | Text Only | Print | Product List | Glossary On
Versions: 1 2 3 4 5 6 7 8 9 10 11 12 13 14 15 16
088
FTUS42 KTAE 260520
TAFVLD
TAF
KVLD 260520Z 2606/2706 00000KT 1SM BR OVC002
     FM261000 VRB03KT P6SM VCSH BKN040
     FM261600 36007KT P6SM VCTS SCT050CB BKN250
     FM270000 09004KT P6SM OVC100=

USA.gov is the U.S. government's official web portal to all federal, state and local government web resources and services.